Current Conditions
Mostly Cloudy
Conditions



Pressure
1019.3 (mb) - 30.1 (inHG)
Visibility

10.0 (mimiles) - 16.1 (km)
   Temperature
70  °F
21°C
61  °F
Dewpoint
73  %
 Humidity
   Wind Speed
8  mph
7  kts
13  km/h
3.6  m/s
   Wind Direction
 110°
East South
East
   Airport Data
KBHC
Location Baxley Municipal Airport 3 mi (4.83 km)
Metar :KBHC 032055Z AUTO 11007KT 10SM BKN021 BKN028 OVC037 21/16 A3010 RMK AO2
Sun 3rd March 15:55 pm
   Raw Metar Info
Raw METAR is the most common format in the world for the transmission of observational weather data. It is highly standardized through the International Civil Aviation Organization (ICAO), which allows it to be understood throughout most of the world.
   API Info
Data Provided by
https://www.checkwx.com/weather/KBHC
   © Info
CSS/SVG/PHP scripts were developed by weather34.com for use in the weather34 template © 2015-2024

Guide Info provided by Metar-Wikipedia